createdAt,value
2022-09-28T00:01:25.917Z,90.82
2022-09-28T00:03:57.779Z,90.78
2022-09-28T00:06:28.261Z,90.49
2022-09-28T00:08:55.922Z,90.31
2022-09-28T00:11:25.518Z,89.89
2022-09-28T00:13:56.943Z,89.83
2022-09-28T00:16:28.063Z,89.60
2022-09-28T00:18:55.434Z,89.61
2022-09-28T00:21:25.834Z,89.79
2022-09-28T00:24:13.299Z,89.50
2022-09-28T00:26:51.713Z,89.83
2022-09-28T00:29:27.688Z,90.21
2022-09-28T00:32:04.360Z,90.10
2022-09-28T00:34:36.737Z,90.44
2022-09-28T00:37:06.610Z,90.67
2022-09-28T00:39:34.662Z,90.51
2022-09-28T00:42:02.718Z,90.03
2022-09-28T00:45:01.664Z,89.69
2022-09-28T00:47:51.755Z,89.69
2022-09-28T00:50:30.559Z,89.61
2022-09-28T00:53:02.557Z,89.79
2022-09-28T00:56:07.598Z,90.03
2022-09-28T00:58:44.656Z,89.89
2022-09-28T01:01:12.766Z,90.20
2022-09-28T01:03:45.688Z,90.54
2022-09-28T01:06:20.718Z,90.62
2022-09-28T01:08:50.973Z,90.86
2022-09-28T01:11:19.529Z,90.56
2022-09-28T01:13:48.810Z,90.97
2022-09-28T01:16:35.567Z,90.62
2022-09-28T01:19:44.107Z,91.13
2022-09-28T01:22:34.498Z,90.68
2022-09-28T01:25:40.977Z,90.87
2022-09-28T01:28:21.857Z,90.95
2022-09-28T01:31:06.845Z,91.00
2022-09-28T01:33:47.120Z,90.89
2022-09-28T01:36:28.465Z,90.84
2022-09-28T01:39:07.388Z,90.85
2022-09-28T01:41:36.958Z,90.62
2022-09-28T01:44:08.961Z,90.64
2022-09-28T01:46:44.865Z,90.79
2022-09-28T01:49:20.609Z,91.19
2022-09-28T01:51:56.256Z,90.91
2022-09-28T01:54:34.317Z,90.81
2022-09-28T01:57:11.773Z,90.98
2022-09-28T01:59:44.921Z,90.68
2022-09-28T02:02:16.970Z,90.71
2022-09-28T02:04:52.593Z,90.94
2022-09-28T02:07:56.337Z,90.84
2022-09-28T02:10:30.503Z,90.50
2022-09-28T02:13:09.337Z,90.44
2022-09-28T02:16:06.226Z,90.22
2022-09-28T02:18:34.040Z,90.21
2022-09-28T02:21:14.187Z,90.22
2022-09-28T02:23:54.346Z,90.17
2022-09-28T02:26:27.129Z,89.96
2022-09-28T02:28:53.918Z,89.85
2022-09-28T02:31:21.119Z,89.73
2022-09-28T02:33:51.173Z,90.50
2022-09-28T02:36:18.403Z,90.38
2022-09-28T02:38:45.370Z,90.42
2022-09-28T02:41:27.015Z,90.52
2022-09-28T02:44:15.993Z,90.45
2022-09-28T02:47:45.304Z,90.44
2022-09-28T02:50:59.652Z,90.20
2022-09-28T02:54:18.524Z,90.03
2022-09-28T02:57:04.052Z,89.87
2022-09-28T03:00:10.673Z,90.10
2022-09-28T03:02:46.721Z,90.72
2022-09-28T03:05:23.432Z,90.73
2022-09-28T03:08:04.157Z,90.99
2022-09-28T03:10:44.243Z,91.06
2022-09-28T03:13:14.291Z,90.96
2022-09-28T03:15:46.462Z,91.06
2022-09-28T03:18:15.323Z,90.62
2022-09-28T03:20:42.468Z,90.45
2022-09-28T03:23:25.425Z,90.39
2022-09-28T03:25:52.510Z,90.30
2022-09-28T03:28:19.641Z,90.28
2022-09-28T03:30:46.397Z,90.06
2022-09-28T03:33:13.243Z,90.25
2022-09-28T03:35:40.025Z,90.19
2022-09-28T03:38:06.868Z,90.07
2022-09-28T03:40:33.725Z,90.04
2022-09-28T03:43:01.536Z,89.76
2022-09-28T03:45:28.368Z,89.58
2022-09-28T03:47:55.213Z,89.33
2022-09-28T03:50:22.099Z,89.68
2022-09-28T03:52:49.073Z,89.80
2022-09-28T03:55:15.889Z,89.72
2022-09-28T03:57:42.655Z,89.48
2022-09-28T04:00:10.883Z,89.75
2022-09-28T04:02:37.767Z,89.60
2022-09-28T04:05:05.072Z,89.58
2022-09-28T04:07:31.860Z,89.71
2022-09-28T04:09:59.134Z,89.85
2022-09-28T04:12:25.908Z,89.96
2022-09-28T04:14:52.651Z,90.00
2022-09-28T04:17:19.582Z,90.25
2022-09-28T04:19:47.523Z,90.22
2022-09-28T04:22:14.394Z,90.08
2022-09-28T04:24:43.624Z,90.35
2022-09-28T04:27:28.833Z,90.62
2022-09-28T04:29:55.657Z,91.35
2022-09-28T04:32:22.571Z,91.89
2022-09-28T04:34:49.750Z,92.37
2022-09-28T04:37:16.638Z,93.18
2022-09-28T04:39:47.585Z,93.78
2022-09-28T04:42:15.141Z,94.01
2022-09-28T04:44:41.921Z,94.21
2022-09-28T04:47:08.735Z,94.32
2022-09-28T04:49:37.493Z,94.63
2022-09-28T04:52:06.202Z,94.53
2022-09-28T04:54:33.384Z,94.65
2022-09-28T04:57:00.208Z,94.53
2022-09-28T04:59:27.080Z,94.62
2022-09-28T05:01:54.289Z,94.67
2022-09-28T05:04:25.610Z,94.80
2022-09-28T05:06:52.863Z,94.47
2022-09-28T05:09:19.710Z,94.22
2022-09-28T05:11:46.812Z,94.22
2022-09-28T05:14:13.631Z,94.19
2022-09-28T05:16:40.438Z,94.00
2022-09-28T05:19:07.503Z,94.21
2022-09-28T05:21:34.319Z,94.32
2022-09-28T05:24:01.515Z,94.10
2022-09-28T05:26:28.288Z,94.27
2022-09-28T05:28:55.078Z,94.27
2022-09-28T05:31:21.999Z,94.60
2022-09-28T05:33:49.310Z,94.45
2022-09-28T05:36:16.190Z,94.45
2022-09-28T05:38:43.370Z,94.47
2022-09-28T05:41:10.138Z,94.22
2022-09-28T05:43:37.107Z,94.05
2022-09-28T05:46:04.195Z,94.42
2022-09-28T05:48:31.149Z,94.50
2022-09-28T05:50:59.156Z,94.29
2022-09-28T05:53:26.061Z,94.10
2022-09-28T05:55:53.019Z,94.22
2022-09-28T05:58:19.823Z,93.68
2022-09-28T06:00:46.668Z,94.33
2022-09-28T06:03:15.271Z,93.48
2022-09-28T06:05:42.204Z,93.60
2022-09-28T06:08:13.154Z,93.93
2022-09-28T06:10:41.120Z,93.88
2022-09-28T06:13:08.748Z,94.29
2022-09-28T06:15:36.999Z,94.28
2022-09-28T06:18:11.046Z,94.08
2022-09-28T06:20:43.381Z,94.17
2022-09-28T06:23:11.293Z,93.76
2022-09-28T06:25:38.630Z,93.71
2022-09-28T06:28:14.673Z,93.80
2022-09-28T06:30:43.349Z,93.92
2022-09-28T06:33:13.438Z,94.07
2022-09-28T06:35:40.913Z,94.10
2022-09-28T06:38:08.034Z,94.06
2022-09-28T06:40:35.357Z,93.96
2022-09-28T06:43:15.289Z,94.19
2022-09-28T06:45:43.388Z,94.20
2022-09-28T06:48:11.573Z,94.67
2022-09-28T06:50:41.081Z,94.00
2022-09-28T06:53:12.008Z,94.11
2022-09-28T06:55:44.085Z,94.01
2022-09-28T06:58:14.615Z,93.68
2022-09-28T07:00:42.408Z,93.74
2022-09-28T07:03:14.298Z,93.84
2022-09-28T07:05:44.376Z,93.84
2022-09-28T07:08:12.385Z,93.80
2022-09-28T07:10:48.317Z,93.66
2022-09-28T07:13:43.276Z,93.83
2022-09-28T07:16:04.613Z,93.95
2022-09-28T07:18:31.513Z,93.53
2022-09-28T07:20:59.529Z,93.61
2022-09-28T07:23:29.719Z,93.43
2022-09-28T07:25:58.349Z,93.28
2022-09-28T07:28:25.552Z,93.64
2022-09-28T07:30:52.553Z,93.56
2022-09-28T07:33:19.410Z,93.15
2022-09-28T07:35:54.543Z,92.75
2022-09-28T07:38:22.257Z,93.19
2022-09-28T07:41:07.589Z,93.03
2022-09-28T07:43:34.488Z,93.13
2022-09-28T07:46:01.356Z,92.75
2022-09-28T07:48:28.357Z,92.30
2022-09-28T07:50:57.451Z,91.98
2022-09-28T07:53:25.892Z,90.50
2022-09-28T07:55:53.331Z,88.66
2022-09-28T07:58:20.842Z,87.63
2022-09-28T08:00:49.578Z,86.39
2022-09-28T08:03:22.632Z,85.26
2022-09-28T08:05:49.931Z,83.81
2022-09-28T08:08:16.829Z,82.85
2022-09-28T08:10:47.243Z,82.52
2022-09-28T08:13:16.502Z,81.19
2022-09-28T08:15:43.361Z,81.34
2022-09-28T08:18:10.585Z,80.61
2022-09-28T08:20:55.944Z,80.39
2022-09-28T08:23:23.707Z,80.63
2022-09-28T08:25:55.307Z,80.93
2022-09-28T08:28:24.163Z,80.54
2022-09-28T08:30:51.858Z,80.68
2022-09-28T08:33:21.444Z,80.54
2022-09-28T08:35:54.866Z,80.93
2022-09-28T08:38:21.812Z,81.09
2022-09-28T08:41:15.692Z,78.07
2022-09-28T08:44:14.135Z,78.07
2022-09-28T08:47:01.371Z,76.23
2022-09-28T08:49:50.607Z,75.72
2022-09-28T08:52:26.845Z,73.98
2022-09-28T08:55:28.123Z,74.54
2022-09-28T08:58:23.783Z,74.58
2022-09-28T09:00:54.344Z,75.53
2022-09-28T09:03:33.706Z,74.32
2022-09-28T09:06:23.812Z,71.00
2022-09-28T09:09:14.876Z,73.44
2022-09-28T09:12:06.508Z,72.80
2022-09-28T09:15:39.392Z,70.33
2022-09-28T09:18:20.087Z,72.63
2022-09-28T09:20:59.179Z,71.82
2022-09-28T09:23:57.421Z,72.09
2022-09-28T09:26:39.690Z,72.68
2022-09-28T09:30:01.382Z,72.24
2022-09-28T09:32:37.080Z,72.33
2022-09-28T09:35:22.882Z,71.71
2022-09-28T09:37:58.659Z,72.16
2022-09-28T09:40:43.199Z,72.09
2022-09-28T09:43:58.886Z,72.30
2022-09-28T09:46:42.533Z,73.36
2022-09-28T09:49:33.593Z,73.33
2022-09-28T09:52:24.372Z,73.48
2022-09-28T09:55:03.629Z,72.80
2022-09-28T09:57:42.613Z,72.94
2022-09-28T10:00:15.474Z,72.88
2022-09-28T10:02:47.036Z,72.95
2022-09-28T10:05:13.774Z,73.33
2022-09-28T10:07:59.093Z,73.52
2022-09-28T10:10:34.212Z,72.71
2022-09-28T10:13:01.371Z,72.88
2022-09-28T10:15:32.240Z,71.48
2022-09-28T10:18:06.889Z,71.36
2022-09-28T10:20:43.300Z,72.00
2022-09-28T10:23:30.221Z,72.21
2022-09-28T10:26:07.509Z,71.95
2022-09-28T10:28:45.989Z,72.28
2022-09-28T10:31:49.056Z,71.39
2022-09-28T10:34:19.065Z,70.37
2022-09-28T10:37:00.883Z,70.73
2022-09-28T10:39:53.376Z,69.59
2022-09-28T10:42:26.940Z,69.22
2022-09-28T10:45:04.865Z,69.20
2022-09-28T10:47:32.912Z,68.58
2022-09-28T10:50:01.047Z,68.36
2022-09-28T10:52:31.899Z,68.62
2022-09-28T10:54:58.868Z,68.01
2022-09-28T10:57:44.016Z,67.12
2022-09-28T11:00:31.851Z,66.93
2022-09-28T11:03:00.541Z,67.26
2022-09-28T11:05:28.094Z,67.51
2022-09-28T11:07:57.425Z,65.37
2022-09-28T11:10:29.364Z,65.28
2022-09-28T11:12:57.113Z,65.42
2022-09-28T11:15:33.377Z,64.28
2022-09-28T11:18:31.695Z,63.10
2022-09-28T11:21:15.906Z,62.40
2022-09-28T11:24:07.612Z,61.66
2022-09-28T11:26:44.740Z,61.62
2022-09-28T11:29:41.932Z,60.46
2022-09-28T11:32:14.897Z,61.02
2022-09-28T11:34:59.285Z,61.49
2022-09-28T11:37:37.943Z,60.92
2022-09-28T11:40:30.971Z,60.82
2022-09-28T11:43:16.802Z,61.04
2022-09-28T11:46:01.879Z,60.04
2022-09-28T11:48:41.053Z,60.38
2022-09-28T11:51:28.102Z,59.41
2022-09-28T11:54:18.286Z,58.54
2022-09-28T11:56:49.375Z,57.74
2022-09-28T11:59:28.032Z,58.78
2022-09-28T12:02:17.642Z,58.75
2022-09-28T12:04:51.333Z,59.25
2022-09-28T12:07:35.003Z,59.88
2022-09-28T12:10:45.265Z,59.64
2022-09-28T12:13:20.596Z,58.91
2022-09-28T12:19:11.257Z,56.34
2022-09-28T12:21:45.879Z,56.73
2022-09-28T12:24:16.478Z,57.76
2022-09-28T12:26:49.329Z,56.40
2022-09-28T12:29:23.884Z,56.77
2022-09-28T12:32:09.275Z,55.02
2022-09-28T12:34:36.158Z,54.63
2022-09-28T12:37:36.906Z,54.60
2022-09-28T12:40:23.514Z,54.57
2022-09-28T12:43:14.643Z,54.71
2022-09-28T12:46:21.583Z,53.57
2022-09-28T12:50:36.641Z,53.02
2022-09-28T12:53:29.760Z,53.81
2022-09-28T12:56:09.472Z,54.44
2022-09-28T12:59:07.216Z,55.18
2022-09-28T13:02:37.138Z,56.47
2022-09-28T13:05:44.608Z,57.17
2022-09-28T13:08:55.581Z,56.31
2022-09-28T13:11:34.324Z,56.27
2022-09-28T13:14:35.200Z,56.02
2022-09-28T13:17:35.679Z,55.34
2022-09-28T13:20:44.674Z,55.63
2022-09-28T13:23:31.483Z,55.38
2022-09-28T13:26:14.590Z,55.28
2022-09-28T13:28:44.369Z,54.74
2022-09-28T13:31:13.494Z,54.59
2022-09-28T13:33:44.069Z,54.79
2022-09-28T13:36:34.949Z,53.44
2022-09-28T13:39:02.216Z,54.18
2022-09-28T13:41:40.603Z,54.30
2022-09-28T13:44:13.385Z,53.06
2022-09-28T13:47:21.763Z,53.44
2022-09-28T13:50:15.629Z,54.54
2022-09-28T13:52:55.892Z,54.79
2022-09-28T13:55:47.414Z,54.50
2022-09-28T13:59:02.417Z,53.84
2022-09-28T14:01:43.132Z,54.35
2022-09-28T14:04:20.323Z,55.07
2022-09-28T14:06:57.117Z,54.78
2022-09-28T14:10:02.609Z,53.80
2022-09-28T14:12:35.056Z,53.78
2022-09-28T14:15:13.377Z,52.95
2022-09-28T14:18:05.523Z,51.50
2022-09-28T14:20:35.459Z,52.26
2022-09-28T14:23:43.352Z,53.44
2022-09-28T14:26:49.622Z,54.13
2022-09-28T14:29:31.416Z,54.05
2022-09-28T14:32:25.130Z,51.70
2022-09-28T14:35:02.669Z,51.34
2022-09-28T14:37:54.821Z,50.96
2022-09-28T14:41:11.577Z,50.70
2022-09-28T14:43:58.804Z,48.33
2022-09-28T14:46:25.612Z,48.66
2022-09-28T14:49:19.393Z,48.87
2022-09-28T14:52:02.743Z,49.02
2022-09-28T14:54:45.576Z,48.99
2022-09-28T14:57:19.908Z,50.19
2022-09-28T14:59:47.939Z,51.46
2022-09-28T15:02:25.737Z,51.70
2022-09-28T15:04:56.680Z,52.13
2022-09-28T15:07:28.968Z,52.32
2022-09-28T15:10:02.215Z,53.55
2022-09-28T15:12:31.436Z,53.48
2022-09-28T15:15:08.669Z,52.58
2022-09-28T15:17:40.282Z,52.47
2022-09-28T15:20:30.708Z,52.75
2022-09-28T15:22:59.791Z,52.30
2022-09-28T15:25:34.124Z,52.71
2022-09-28T15:28:17.010Z,52.51
2022-09-28T15:30:43.950Z,52.35
2022-09-28T15:33:44.714Z,52.94
2022-09-28T15:36:24.371Z,52.86
2022-09-28T15:39:12.768Z,53.14
2022-09-28T15:41:41.992Z,53.34
2022-09-28T15:44:33.148Z,53.32
2022-09-28T15:47:14.602Z,53.50
2022-09-28T15:49:53.761Z,54.01
2022-09-28T15:52:46.269Z,54.79
2022-09-28T15:55:25.041Z,54.32
2022-09-28T15:58:15.928Z,54.64
2022-09-28T16:00:45.277Z,55.10
2022-09-28T16:03:11.970Z,55.60
2022-09-28T16:05:56.746Z,55.29
2022-09-28T16:08:42.191Z,55.76
2022-09-28T16:11:20.460Z,56.05
2022-09-28T16:14:06.803Z,56.13
2022-09-28T16:16:49.503Z,56.87
2022-09-28T16:19:36.764Z,57.10
2022-09-28T16:22:13.662Z,57.10
2022-09-28T16:24:40.511Z,57.69
2022-09-28T16:27:44.588Z,57.83
2022-09-28T16:31:02.445Z,58.40
2022-09-28T16:33:43.985Z,57.94
2022-09-28T16:36:17.328Z,57.59
2022-09-28T16:38:48.782Z,57.02
2022-09-28T16:41:29.087Z,57.28
2022-09-28T16:44:02.361Z,56.76
2022-09-28T16:46:39.656Z,57.10
2022-09-28T16:49:07.253Z,57.36
2022-09-28T16:51:35.549Z,58.01
2022-09-28T16:54:33.480Z,58.40
2022-09-28T16:57:01.585Z,58.32
2022-09-28T16:59:29.211Z,58.55
2022-09-28T17:01:56.944Z,58.82
2022-09-28T17:04:25.530Z,59.19
2022-09-28T17:06:54.471Z,59.64
2022-09-28T17:09:22.528Z,60.13
2022-09-28T17:11:56.212Z,60.17
2022-09-28T17:14:24.350Z,60.45
2022-09-28T17:19:41.080Z,61.95
2022-09-28T17:22:10.104Z,62.02
2022-09-28T17:24:37.567Z,62.87
2022-09-28T17:27:07.025Z,62.94
2022-09-28T17:29:33.908Z,63.01
2022-09-28T17:32:00.773Z,63.77
2022-09-28T17:34:27.637Z,63.89
2022-09-28T17:36:55.150Z,64.32
2022-09-28T17:39:25.041Z,64.64
2022-09-28T17:41:51.981Z,64.53
2022-09-28T17:44:20.569Z,64.67
2022-09-28T17:46:49.743Z,64.99
2022-09-28T17:49:17.451Z,65.09
2022-09-28T17:51:47.366Z,65.26
2022-09-28T17:54:16.931Z,65.34
2022-09-28T17:56:43.805Z,65.81
2022-09-28T17:59:14.561Z,65.98
2022-09-28T18:01:41.599Z,66.42
2022-09-28T18:04:22.965Z,66.44
2022-09-28T18:06:54.717Z,66.78
2022-09-28T18:09:25.412Z,67.18
2022-09-28T18:12:01.032Z,67.14
2022-09-28T18:14:28.647Z,67.32
2022-09-28T18:16:55.578Z,67.71
2022-09-28T18:19:22.454Z,67.66
2022-09-28T18:21:49.224Z,67.46
2022-09-28T18:24:15.997Z,67.93
2022-09-28T18:26:42.822Z,68.23
2022-09-28T18:29:10.333Z,68.26
2022-09-28T18:31:37.149Z,68.46
2022-09-28T18:34:04.041Z,68.59
2022-09-28T18:36:33.917Z,68.77
2022-09-28T18:39:01.663Z,68.98
2022-09-28T18:41:29.460Z,69.14
2022-09-28T18:44:00.918Z,69.28
2022-09-28T18:46:29.572Z,69.47
2022-09-28T18:48:56.919Z,69.76
2022-09-28T18:51:23.887Z,69.84
2022-09-28T18:53:50.741Z,70.11
2022-09-28T18:56:19.308Z,69.77
2022-09-28T18:58:51.772Z,70.09
2022-09-28T19:01:36.545Z,70.46
2022-09-28T19:04:07.510Z,70.01
2022-09-28T19:06:38.815Z,70.35
2022-09-28T19:09:05.759Z,70.17
2022-09-28T19:11:33.018Z,70.36
2022-09-28T19:13:59.967Z,70.20
2022-09-28T19:16:30.109Z,70.12
2022-09-28T19:18:59.062Z,70.03
2022-09-28T19:21:27.248Z,70.52
2022-09-28T19:23:55.672Z,70.24
2022-09-28T19:26:27.089Z,70.39
2022-09-28T19:28:56.235Z,70.46
2022-09-28T19:31:24.050Z,70.44
2022-09-28T19:33:50.989Z,70.50
2022-09-28T19:36:21.956Z,70.67
2022-09-28T19:38:49.217Z,70.76
2022-09-28T19:41:43.403Z,70.67
2022-09-28T19:44:24.885Z,70.87
2022-09-28T19:47:04.331Z,70.86
2022-09-28T19:49:33.347Z,70.85
2022-09-28T19:52:16.788Z,71.35
2022-09-28T19:54:55.420Z,71.44
2022-09-28T19:57:31.863Z,71.41
2022-09-28T20:00:03.450Z,71.74
2022-09-28T20:02:30.777Z,71.73
2022-09-28T20:04:57.645Z,72.08
2022-09-28T20:07:24.497Z,72.17
2022-09-28T20:09:51.949Z,72.29
2022-09-28T20:12:18.940Z,72.41
2022-09-28T20:14:45.739Z,72.49
2022-09-28T20:17:12.573Z,72.92
2022-09-28T20:19:39.429Z,72.88
2022-09-28T20:22:06.615Z,72.68
2022-09-28T20:24:33.711Z,72.85
2022-09-28T20:27:01.701Z,72.99
2022-09-28T20:29:31.810Z,73.65
2022-09-28T20:31:59.201Z,73.56
2022-09-28T20:34:26.115Z,74.27
2022-09-28T20:36:53.070Z,74.53
2022-09-28T20:39:20.284Z,74.98
2022-09-28T20:41:49.214Z,75.23
2022-09-28T20:44:16.252Z,75.52
2022-09-28T20:46:44.413Z,75.15
2022-09-28T20:49:11.374Z,75.49
2022-09-28T20:51:38.170Z,75.61
2022-09-28T20:54:05.072Z,76.14
2022-09-28T20:56:38.971Z,76.25
2022-09-28T20:59:12.181Z,75.67
2022-09-28T21:01:39.186Z,75.92
2022-09-28T21:04:09.267Z,75.51
2022-09-28T21:06:39.925Z,75.64
2022-09-28T21:09:09.382Z,75.58
2022-09-28T21:11:37.169Z,75.50
2022-09-28T21:14:06.989Z,75.21
2022-09-28T21:16:35.418Z,75.50
2022-09-28T21:19:03.121Z,75.14
2022-09-28T21:21:30.426Z,75.39
2022-09-28T21:23:58.604Z,75.63
2022-09-28T21:26:29.744Z,75.27
2022-09-28T21:29:02.234Z,75.21
2022-09-28T21:31:39.810Z,75.15
2022-09-28T21:34:07.805Z,75.20
2022-09-28T21:36:34.877Z,75.20
2022-09-28T21:39:01.648Z,75.17
2022-09-28T21:41:29.364Z,75.09
2022-09-28T21:43:56.263Z,75.32
2022-09-28T21:46:23.336Z,75.63
2022-09-28T21:48:54.023Z,75.39
2022-09-28T21:51:21.225Z,75.45
2022-09-28T21:53:49.396Z,75.83
2022-09-28T21:56:16.350Z,75.80
2022-09-28T21:58:43.122Z,75.98
2022-09-28T22:01:22.942Z,75.90
2022-09-28T22:03:53.222Z,75.83
2022-09-28T22:06:23.460Z,75.93
2022-09-28T22:08:50.993Z,75.96
2022-09-28T22:11:21.389Z,75.95
2022-09-28T22:13:51.588Z,76.13
2022-09-28T22:16:22.613Z,76.72
2022-09-28T22:18:50.457Z,76.66
2022-09-28T22:21:26.762Z,76.86
2022-09-28T22:23:53.701Z,76.39
2022-09-28T22:26:24.979Z,77.06
2022-09-28T22:29:09.875Z,77.05
2022-09-28T22:31:40.159Z,77.23
2022-09-28T22:34:07.910Z,77.38
2022-09-28T22:36:34.929Z,77.17
2022-09-28T22:39:01.797Z,77.83
2022-09-28T22:41:28.728Z,78.12
2022-09-28T22:43:56.957Z,78.17
2022-09-28T22:46:27.278Z,78.37
2022-09-28T22:48:57.277Z,78.59
2022-09-28T22:51:26.432Z,79.04
2022-09-28T22:53:53.535Z,79.42
2022-09-28T22:56:20.621Z,80.41
2022-09-28T22:58:48.208Z,80.74
2022-09-28T23:01:22.182Z,80.59
2022-09-28T23:03:51.427Z,80.57
2022-09-28T23:06:21.157Z,81.53
2022-09-28T23:08:50.606Z,81.12
2022-09-28T23:11:17.677Z,82.37
2022-09-28T23:13:53.168Z,82.03
2022-09-28T23:16:20.919Z,82.64
2022-09-28T23:18:49.414Z,82.69
2022-09-28T23:21:19.741Z,82.96
2022-09-28T23:23:55.131Z,84.75
2022-09-28T23:26:26.709Z,84.08
2022-09-28T23:28:54.188Z,84.70
2022-09-28T23:31:28.088Z,84.07
2022-09-28T23:34:05.340Z,84.38
2022-09-28T23:36:32.740Z,84.26
2022-09-28T23:38:59.779Z,84.31
2022-09-28T23:41:26.669Z,84.19
2022-09-28T23:43:53.537Z,84.86
2022-09-28T23:46:21.239Z,84.53
2022-09-28T23:48:49.549Z,84.60
2022-09-28T23:51:16.837Z,84.33
2022-09-28T23:53:43.784Z,84.58
2022-09-28T23:56:11.356Z,84.94
2022-09-28T23:58:38.309Z,84.66
